Time;durP1;ratioP1;P1;durP2;ratioP2;P2;SDS_P1;SDS_P2;PMS_P1;PMS_P2;Temp;Humidity;BMP_temperature;BMP_pressure;BME280_temperature;BME280_humidity;BME280_pressure;Samples;Min_cycle;Max_cycle;Signal;HPM_P1;HPM_P2
2022/01/17 00:01:15;;;;;;;10.90;3.07;;;9.00;99.90;;;;;;5033348;28;20221;-80
2022/01/17 00:03:42;;;;;;;17.90;3.40;;;9.00;99.90;;;;;;5023742;28;20350;-80
2022/01/17 00:06:08;;;;;;;12.00;3.07;;;9.00;99.90;;;;;;5042086;28;20229;-81
2022/01/17 00:08:40;;;;;;;20.97;3.33;;;9.00;99.90;;;;;;5021101;28;20597;-80
2022/01/17 00:11:07;;;;;;;20.87;4.40;;;9.00;99.90;;;;;;5041976;28;20311;-80
2022/01/17 00:13:35;;;;;;;14.67;3.60;;;9.00;99.90;;;;;;5024583;28;20838;-81
2022/01/17 00:16:09;;;;;;;15.97;3.03;;;9.00;99.90;;;;;;5023994;28;20224;-80
2022/01/17 00:21:20;;;;;;;17.40;3.30;;;9.00;99.90;;;;;;5033370;28;20364;-80
2022/01/17 00:23:46;;;;;;;11.57;2.90;;;9.00;99.90;;;;;;5044752;28;20879;-80
2022/01/17 00:26:13;;;;;;;18.43;3.90;;;9.00;99.90;;;;;;5053335;28;20614;-80
2022/01/17 00:28:41;;;;;;;14.30;3.47;;;9.00;99.90;;;;;;5029457;28;20233;-81
2022/01/17 00:31:08;;;;;;;16.27;2.83;;;9.00;99.90;;;;;;5022758;28;20225;-81
2022/01/17 00:33:35;;;;;;;11.10;3.17;;;9.00;99.90;;;;;;5028806;28;20251;-81
2022/01/17 00:36:03;;;;;;;12.37;3.03;;;9.00;99.90;;;;;;5039406;28;20217;-81
2022/01/17 00:38:29;;;;;;;17.77;2.70;;;9.00;99.90;;;;;;5023899;28;20233;-81
2022/01/17 00:40:56;;;;;;;11.83;2.50;;;9.00;99.90;;;;;;5045079;28;20997;-81
2022/01/17 00:43:23;;;;;;;10.97;2.87;;;9.00;99.90;;;;;;5038251;28;20232;-83
2022/01/17 00:45:51;;;;;;;14.63;2.90;;;9.00;99.90;;;;;;5044345;28;20299;-81
2022/01/17 00:48:18;;;;;;;10.60;2.53;;;9.00;99.90;;;;;;5038153;28;20231;-80
2022/01/17 00:50:47;;;;;;;22.50;3.47;;;9.10;99.90;;;;;;5031847;28;20233;-80
2022/01/17 00:53:14;;;;;;;15.67;2.80;;;9.10;99.90;;;;;;5031671;28;20263;-79
2022/01/17 00:55:40;;;;;;;21.43;4.13;;;9.10;99.90;;;;;;5036002;28;20233;-80
2022/01/17 00:58:07;;;;;;;14.27;2.83;;;9.10;99.90;;;;;;5039617;28;20975;-80
2022/01/17 01:00:34;;;;;;;10.63;2.90;;;9.10;99.90;;;;;;5037714;28;20309;-80
2022/01/17 01:03:03;;;;;;;13.80;2.73;;;9.10;99.90;;;;;;5047235;28;20233;-80
2022/01/17 01:05:31;;;;;;;12.57;2.83;;;9.10;99.90;;;;;;5042534;28;20743;-79
2022/01/17 01:07:57;;;;;;;13.10;2.93;;;9.10;99.90;;;;;;5034433;28;20728;-82
2022/01/17 01:10:24;;;;;;;12.30;2.47;;;9.20;99.90;;;;;;5021374;28;20333;-80
2022/01/17 01:12:52;;;;;;;17.17;3.07;;;9.10;99.90;;;;;;5024448;28;20230;-82
2022/01/17 01:15:22;;;;;;;16.90;3.57;;;9.20;99.90;;;;;;5038359;28;20256;-83
2022/01/17 01:17:52;;;;;;;15.03;3.03;;;9.20;99.90;;;;;;5043946;28;20609;-79
2022/01/17 01:20:45;;;;;;;12.43;2.80;;;9.20;99.90;;;;;;5048835;28;20695;-80
2022/01/17 01:28:42;;;;;;;20.43;3.63;;;9.20;99.90;;;;;;5032922;28;20240;-80
2022/01/17 01:31:14;;;;;;;15.10;3.47;;;9.20;99.90;;;;;;5018906;28;20287;-80
2022/01/17 01:33:48;;;;;;;16.43;2.90;;;9.20;99.90;;;;;;5041507;28;20325;-79
2022/01/17 01:36:21;;;;;;;14.93;2.90;;;9.20;99.90;;;;;;5058168;28;20282;-80
2022/01/17 01:38:48;;;;;;;13.90;2.90;;;9.20;99.90;;;;;;5039323;28;20336;-79
2022/01/17 01:41:14;;;;;;;16.00;2.80;;;9.20;99.90;;;;;;5037594;28;20277;-80
2022/01/17 01:43:41;;;;;;;14.03;3.23;;;9.20;99.90;;;;;;5038398;28;20226;-78
2022/01/17 01:46:10;;;;;;;13.30;3.33;;;9.30;99.90;;;;;;5021198;28;20707;-80
2022/01/17 01:48:37;;;;;;;12.37;2.70;;;9.30;99.90;;;;;;5044103;28;20226;-78
2022/01/17 01:51:04;;;;;;;12.53;2.97;;;9.30;99.90;;;;;;5024636;28;20231;-78
2022/01/17 01:53:32;;;;;;;12.33;2.83;;;9.30;99.90;;;;;;5043530;28;20627;-81
2022/01/17 01:55:59;;;;;;;20.07;3.53;;;9.40;99.90;;;;;;5043276;28;20223;-80
2022/01/17 01:58:27;;;;;;;13.10;2.80;;;9.30;99.90;;;;;;5047629;28;20230;-80
2022/01/17 02:00:54;;;;;;;10.90;3.23;;;9.40;99.90;;;;;;5043892;28;20224;-79
2022/01/17 02:03:22;;;;;;;17.20;2.90;;;9.40;99.90;;;;;;5039486;28;20578;-82
2022/01/17 02:05:48;;;;;;;13.43;2.80;;;9.40;99.90;;;;;;5026226;28;20279;-79
2022/01/17 02:08:16;;;;;;;16.77;3.77;;;9.40;99.90;;;;;;5038993;28;20236;-80
2022/01/17 02:10:44;;;;;;;16.17;3.20;;;9.40;99.90;;;;;;5022880;28;20235;-81
2022/01/17 02:13:11;;;;;;;14.43;3.77;;;9.40;99.90;;;;;;5021544;28;20227;-79
2022/01/17 02:15:40;;;;;;;18.17;4.00;;;9.40;99.90;;;;;;5019407;28;20232;-79
2022/01/17 02:18:08;;;;;;;15.93;3.77;;;9.40;99.90;;;;;;5034519;28;20671;-79
2022/01/17 02:20:42;;;;;;;15.90;3.43;;;9.50;99.90;;;;;;5031060;28;20291;-79
2022/01/17 02:23:09;;;;;;;13.87;3.03;;;9.50;99.90;;;;;;5043390;28;20231;-79
2022/01/17 02:25:36;;;;;;;17.57;3.73;;;9.50;99.90;;;;;;5036544;28;20233;-78
2022/01/17 02:28:04;;;;;;;15.90;3.27;;;9.50;99.90;;;;;;5026482;28;20233;-78
2022/01/17 02:30:32;;;;;;;17.40;3.03;;;9.50;99.90;;;;;;5029645;28;20230;-81
2022/01/17 02:32:59;;;;;;;14.70;2.83;;;9.50;99.90;;;;;;5020887;28;20226;-79
2022/01/17 02:35:26;;;;;;;15.47;3.27;;;9.50;99.90;;;;;;5042781;28;20245;-79
2022/01/17 02:37:55;;;;;;;13.53;3.73;;;9.50;99.90;;;;;;5044648;28;20234;-78
2022/01/17 02:40:22;;;;;;;16.80;3.00;;;9.50;99.90;;;;;;5037013;28;20236;-81
2022/01/17 02:42:50;;;;;;;17.23;3.00;;;9.50;99.90;;;;;;5044658;28;20231;-79
2022/01/17 02:45:31;;;;;;;13.43;3.30;;;9.50;99.90;;;;;;5032436;28;20282;-80
2022/01/17 02:47:59;;;;;;;19.03;4.13;;;9.60;99.90;;;;;;5039047;28;20862;-82
2022/01/17 02:50:25;;;;;;;17.77;3.63;;;9.60;99.90;;;;;;5043712;28;20237;-79
2022/01/17 02:52:58;;;;;;;13.80;3.07;;;9.50;99.90;;;;;;5058241;28;20239;-80
2022/01/17 02:55:25;;;;;;;17.53;4.80;;;9.60;99.90;;;;;;5039639;28;20248;-79
2022/01/17 02:57:51;;;;;;;15.30;2.83;;;9.50;99.90;;;;;;5044905;28;20230;-80
2022/01/17 03:00:18;;;;;;;15.00;3.00;;;9.50;99.90;;;;;;5043148;28;20230;-78
2022/01/17 03:02:48;;;;;;;14.50;2.87;;;9.60;99.90;;;;;;5033543;28;20244;-79
2022/01/17 03:05:15;;;;;;;21.33;3.53;;;9.60;99.90;;;;;;5040430;28;20221;-79
2022/01/17 03:07:42;;;;;;;11.97;3.37;;;9.60;99.90;;;;;;5044183;28;20251;-79
2022/01/17 03:10:19;;;;;;;16.17;3.57;;;9.60;99.90;;;;;;5040322;28;20260;-80
2022/01/17 03:12:46;;;;;;;13.67;3.30;;;9.60;99.90;;;;;;5043021;28;20228;-79
2022/01/17 03:15:13;;;;;;;12.10;3.20;;;9.60;99.90;;;;;;5041653;28;20278;-78
2022/01/17 03:17:40;;;;;;;15.73;3.30;;;9.60;99.90;;;;;;5040482;28;20778;-77
2022/01/17 03:20:08;;;;;;;12.20;3.07;;;9.60;99.90;;;;;;5044417;28;20233;-78
2022/01/17 03:22:35;;;;;;;12.97;3.27;;;9.60;99.90;;;;;;5045095;28;20331;-78
2022/01/17 03:25:02;;;;;;;11.33;3.30;;;9.60;99.90;;;;;;5047628;28;20224;-78
2022/01/17 03:27:30;;;;;;;14.73;3.77;;;9.60;99.90;;;;;;5048996;28;20795;-78
2022/01/17 03:29:57;;;;;;;13.80;2.70;;;9.60;99.90;;;;;;5041821;28;20222;-78
2022/01/17 03:32:24;;;;;;;16.57;3.27;;;9.60;99.90;;;;;;5052046;28;20235;-79
2022/01/17 03:34:50;;;;;;;18.53;3.87;;;9.70;99.90;;;;;;5047580;28;20800;-78
2022/01/17 03:37:17;;;;;;;19.60;3.43;;;9.70;99.90;;;;;;5049495;28;20300;-78
2022/01/17 03:39:44;;;;;;;14.17;2.80;;;9.70;99.90;;;;;;5056212;28;20284;-78
2022/01/17 03:42:10;;;;;;;16.60;4.17;;;9.70;99.90;;;;;;5049586;28;20233;-79
2022/01/17 03:44:39;;;;;;;17.00;3.67;;;9.70;99.90;;;;;;5044180;28;20234;-79
2022/01/17 03:47:06;;;;;;;12.93;2.90;;;9.70;99.90;;;;;;5046064;28;20531;-78
2022/01/17 03:49:33;;;;;;;12.07;3.13;;;9.70;99.90;;;;;;5050365;28;20243;-80
2022/01/17 03:51:59;;;;;;;11.77;3.23;;;9.70;99.90;;;;;;5055302;28;20233;-79
2022/01/17 03:54:26;;;;;;;11.40;2.80;;;9.70;99.90;;;;;;5039946;28;20243;-78
2022/01/17 03:56:53;;;;;;;16.27;3.53;;;9.70;99.90;;;;;;5049183;28;20756;-79
2022/01/17 03:59:20;;;;;;;18.60;3.00;;;9.70;99.90;;;;;;5048189;28;20215;-79
2022/01/17 04:01:48;;;;;;;20.80;3.40;;;9.70;99.90;;;;;;5056427;28;20251;-79
2022/01/17 04:04:14;;;;;;;15.37;3.30;;;9.70;99.90;;;;;;5038597;28;20256;-79
2022/01/17 04:06:41;;;;;;;12.00;2.60;;;9.70;99.90;;;;;;5043639;28;20251;-78
2022/01/17 04:09:08;;;;;;;15.33;3.23;;;9.70;99.90;;;;;;5045345;28;20231;-79
2022/01/17 04:11:36;;;;;;;16.90;3.60;;;9.70;99.90;;;;;;5041458;28;20243;-78
2022/01/17 04:14:03;;;;;;;15.63;3.30;;;9.70;99.90;;;;;;5025871;28;20295;-79
2022/01/17 04:16:30;;;;;;;11.00;2.60;;;9.70;99.90;;;;;;5045102;28;20238;-78
2022/01/17 04:18:58;;;;;;;12.60;2.60;;;9.80;99.90;;;;;;5026312;28;20226;-79
2022/01/17 04:21:30;;;;;;;18.57;3.40;;;9.80;99.90;;;;;;5044273;28;20573;-78
2022/01/17 04:23:57;;;;;;;14.80;3.33;;;9.80;99.90;;;;;;5048900;28;20225;-79
2022/01/17 04:26:24;;;;;;;15.37;2.93;;;9.80;99.90;;;;;;5042017;28;20560;-79
2022/01/17 04:28:51;;;;;;;15.40;3.27;;;9.80;99.90;;;;;;5024718;28;20229;-81
2022/01/17 04:31:17;;;;;;;17.90;3.30;;;9.80;99.90;;;;;;5043588;28;20225;-79
2022/01/17 04:33:44;;;;;;;18.50;3.67;;;9.80;99.90;;;;;;5033870;28;20796;-78
2022/01/17 04:36:12;;;;;;;14.60;3.20;;;9.80;99.90;;;;;;5047783;28;20240;-82
2022/01/17 04:38:39;;;;;;;15.80;3.17;;;9.80;99.90;;;;;;5046489;28;20238;-79
2022/01/17 04:41:11;;;;;;;15.40;3.73;;;9.90;99.90;;;;;;5027396;28;20231;-77
2022/01/17 04:43:56;;;;;;;15.70;3.30;;;9.80;99.90;;;;;;5043951;28;20239;-78
2022/01/17 04:46:23;;;;;;;21.53;3.67;;;9.80;99.90;;;;;;5044718;28;20868;-78
2022/01/17 04:48:50;;;;;;;12.90;3.00;;;9.80;99.90;;;;;;5026520;28;20234;-80
2022/01/17 04:51:18;;;;;;;18.57;3.33;;;9.80;99.90;;;;;;5047194;28;20279;-79
2022/01/17 04:53:58;;;;;;;13.33;3.23;;;9.80;99.90;;;;;;5044004;28;20239;-79
2022/01/17 04:56:25;;;;;;;15.73;2.97;;;9.90;99.90;;;;;;5040798;28;20250;-78
2022/01/17 04:58:52;;;;;;;14.37;2.87;;;9.90;99.90;;;;;;5035244;28;20664;-78
2022/01/17 05:01:18;;;;;;;17.20;2.93;;;9.90;99.90;;;;;;5042382;28;20235;-79
2022/01/17 05:03:45;;;;;;;17.80;3.53;;;9.90;99.90;;;;;;5018322;28;20223;-79
2022/01/17 05:06:12;;;;;;;18.57;3.67;;;9.90;99.90;;;;;;5030348;28;20227;-78
2022/01/17 05:08:40;;;;;;;12.13;3.50;;;9.90;99.90;;;;;;5039511;28;20217;-79
2022/01/17 05:11:06;;;;;;;18.17;3.80;;;9.90;99.90;;;;;;5031647;28;20226;-86
2022/01/17 05:13:35;;;;;;;10.07;3.07;;;10.00;99.90;;;;;;5023799;28;20243;-81
2022/01/17 05:16:09;;;;;;;13.60;3.53;;;10.00;99.90;;;;;;5043520;28;20316;-81
2022/01/17 05:21:21;;;;;;;12.30;2.90;;;10.00;99.90;;;;;;5047289;28;20225;-83
2022/01/17 05:23:49;;;;;;;16.27;3.63;;;10.00;99.90;;;;;;5028278;28;20637;-82
2022/01/17 05:26:16;;;;;;;22.90;4.37;;;10.00;99.90;;;;;;5049397;28;20235;-82
2022/01/17 05:28:42;;;;;;;17.70;3.57;;;10.10;99.90;;;;;;5049741;28;20325;-83
2022/01/17 05:31:09;;;;;;;15.43;3.67;;;10.10;99.90;;;;;;5017061;28;20223;-85
2022/01/17 05:33:36;;;;;;;17.00;3.83;;;10.10;99.90;;;;;;5027424;28;20228;-84
2022/01/17 05:36:02;;;;;;;11.77;3.40;;;10.10;99.90;;;;;;5048276;28;20777;-83
2022/01/17 05:38:29;;;;;;;16.93;3.67;;;10.10;99.90;;;;;;5042448;28;20234;-83
2022/01/17 05:40:57;;;;;;;16.27;3.67;;;10.10;99.90;;;;;;5040650;28;20597;-83
2022/01/17 05:43:24;;;;;;;19.20;3.87;;;10.20;99.90;;;;;;5023553;28;20699;-85
2022/01/17 05:45:50;;;;;;;16.97;3.63;;;10.20;99.90;;;;;;5026577;28;20257;-83
2022/01/17 05:48:17;;;;;;;13.63;3.23;;;10.20;99.90;;;;;;5024432;28;20311;-83
2022/01/17 05:50:44;;;;;;;13.17;3.07;;;10.10;99.90;;;;;;5042490;28;20592;-82
2022/01/17 05:53:11;;;;;;;16.03;3.33;;;10.20;99.90;;;;;;5028051;28;21121;-83
2022/01/17 05:55:39;;;;;;;17.77;3.47;;;10.20;99.90;;;;;;5023930;28;20312;-81
2022/01/17 05:58:07;;;;;;;20.00;4.37;;;10.10;99.90;;;;;;5024767;28;20894;-79
2022/01/17 06:00:34;;;;;;;16.30;3.60;;;10.10;99.90;;;;;;5044086;28;20244;-79
2022/01/17 06:03:01;;;;;;;16.50;4.13;;;10.10;99.90;;;;;;5020338;28;20229;-79
2022/01/17 06:05:27;;;;;;;16.17;4.10;;;10.10;99.90;;;;;;5039173;28;21026;-78
2022/01/17 06:07:54;;;;;;;18.47;3.83;;;10.10;99.90;;;;;;5022962;28;20623;-80
2022/01/17 06:10:21;;;;;;;15.57;3.73;;;10.20;99.90;;;;;;5047508;28;20230;-79
2022/01/17 06:12:48;;;;;;;20.83;4.43;;;10.20;99.90;;;;;;5042335;28;20318;-80
2022/01/17 06:15:18;;;;;;;16.13;3.63;;;10.10;99.90;;;;;;5039908;28;20229;-83
2022/01/17 06:17:45;;;;;;;21.73;3.67;;;10.20;99.90;;;;;;5042818;28;20239;-78
2022/01/17 06:20:12;;;;;;;18.83;5.50;;;10.20;99.90;;;;;;5026307;28;20241;-80
2022/01/17 06:22:39;;;;;;;16.80;3.63;;;10.20;99.90;;;;;;5040133;28;20239;-80
2022/01/17 06:25:06;;;;;;;17.20;4.10;;;10.20;99.90;;;;;;5050000;28;20306;-79
2022/01/17 06:27:33;;;;;;;21.67;4.50;;;10.20;99.90;;;;;;5040296;28;20253;-79
2022/01/17 06:30:00;;;;;;;20.43;4.23;;;10.30;99.90;;;;;;5033679;28;20606;-79
2022/01/17 06:32:28;;;;;;;18.30;3.93;;;10.30;99.90;;;;;;5042142;28;20719;-78
2022/01/17 06:34:56;;;;;;;19.23;4.90;;;10.30;99.90;;;;;;5051798;28;20258;-80
2022/01/17 06:37:23;;;;;;;15.23;3.43;;;10.30;99.90;;;;;;5043418;28;20223;-79
2022/01/17 06:39:49;;;;;;;17.77;4.73;;;10.30;99.90;;;;;;5022799;28;20726;-79
2022/01/17 06:42:16;;;;;;;12.23;3.83;;;10.30;99.90;;;;;;5040515;28;20605;-79
2022/01/17 06:44:43;;;;;;;26.07;4.40;;;10.30;99.90;;;;;;5023578;28;20759;-79
2022/01/17 06:47:10;;;;;;;17.87;3.90;;;10.30;99.90;;;;;;5024093;28;20335;-79
2022/01/17 06:49:38;;;;;;;21.87;4.07;;;10.30;99.90;;;;;;5041142;28;20233;-79
2022/01/17 06:52:05;;;;;;;16.53;3.97;;;10.30;99.90;;;;;;5051307;28;20227;-79
2022/01/17 06:54:32;;;;;;;23.87;4.47;;;10.30;99.90;;;;;;5048290;28;20236;-79
2022/01/17 06:56:59;;;;;;;20.33;4.30;;;10.30;99.90;;;;;;5035529;28;20229;-79
2022/01/17 06:59:25;;;;;;;20.40;4.23;;;10.30;99.90;;;;;;5036797;28;20232;-78
2022/01/17 07:01:52;;;;;;;14.43;3.70;;;10.30;99.90;;;;;;5049571;28;20245;-79
2022/01/17 07:04:19;;;;;;;24.97;4.67;;;10.20;99.90;;;;;;5047794;28;20242;-79
2022/01/17 07:06:47;;;;;;;29.53;5.47;;;10.20;99.90;;;;;;5041333;28;20245;-79
2022/01/17 07:09:16;;;;;;;18.73;4.53;;;10.20;99.90;;;;;;5042122;28;20242;-79
2022/01/17 07:11:43;;;;;;;21.97;4.23;;;10.20;99.90;;;;;;5040702;28;20343;-81
2022/01/17 07:14:12;;;;;;;21.17;4.67;;;10.20;99.90;;;;;;5043189;28;20249;-79
2022/01/17 07:16:39;;;;;;;21.20;4.37;;;10.20;99.90;;;;;;5040973;28;20239;-79
2022/01/17 07:19:07;;;;;;;20.23;3.73;;;10.20;99.90;;;;;;5022599;28;20235;-80
2022/01/17 07:21:34;;;;;;;24.67;5.17;;;10.20;99.90;;;;;;5023049;28;20245;-80
2022/01/17 07:24:03;;;;;;;24.07;4.83;;;10.10;99.90;;;;;;5041857;28;20225;-80
2022/01/17 07:26:30;;;;;;;20.13;5.40;;;10.20;99.90;;;;;;5039678;28;20238;-80
2022/01/17 07:28:57;;;;;;;19.27;4.37;;;10.10;99.90;;;;;;5036905;28;20722;-81
2022/01/17 07:31:24;;;;;;;17.00;3.97;;;10.10;99.90;;;;;;5024196;28;20248;-80
2022/01/17 07:33:50;;;;;;;21.53;4.80;;;10.10;99.90;;;;;;5047851;28;20732;-79
2022/01/17 07:36:20;;;;;;;23.33;4.60;;;10.10;99.90;;;;;;5041941;28;20245;-79
2022/01/17 07:38:47;;;;;;;20.13;4.20;;;10.10;99.90;;;;;;5024279;28;20235;-80
2022/01/17 07:41:16;;;;;;;23.43;5.13;;;10.10;99.90;;;;;;5040465;28;20245;-83
2022/01/17 07:43:43;;;;;;;24.70;4.80;;;10.10;99.90;;;;;;5025074;28;21083;-81
2022/01/17 07:46:19;;;;;;;21.33;4.57;;;10.10;99.90;;;;;;5028969;28;20253;-82
2022/01/17 07:49:09;;;;;;;19.17;4.03;;;10.10;99.90;;;;;;5047297;28;20237;-79
2022/01/17 07:51:37;;;;;;;21.43;4.50;;;10.10;99.90;;;;;;5022672;28;20223;-80
2022/01/17 07:54:04;;;;;;;17.23;3.67;;;10.20;99.90;;;;;;5040062;28;20593;-80
2022/01/17 07:56:33;;;;;;;19.87;4.80;;;10.20;99.90;;;;;;5039662;28;20242;-82
2022/01/17 07:59:00;;;;;;;18.57;4.90;;;10.20;99.90;;;;;;5029307;28;20255;-80
2022/01/17 08:01:27;;;;;;;20.33;3.60;;;10.20;99.90;;;;;;5023150;28;20236;-80
2022/01/17 08:03:54;;;;;;;22.57;3.93;;;10.20;99.90;;;;;;5021027;28;20850;-80
2022/01/17 08:06:21;;;;;;;16.40;3.87;;;10.20;99.90;;;;;;5026683;28;20251;-80
2022/01/17 08:08:48;;;;;;;14.23;3.70;;;10.20;99.90;;;;;;5029476;28;20812;-80
2022/01/17 08:11:14;;;;;;;20.97;4.83;;;10.20;99.90;;;;;;5047438;28;20259;-80
2022/01/17 08:13:43;;;;;;;18.67;3.93;;;10.20;99.90;;;;;;5055685;28;20243;-79
2022/01/17 08:16:10;;;;;;;20.73;4.67;;;10.20;99.90;;;;;;5031599;28;20234;-80
2022/01/17 08:18:36;;;;;;;23.13;4.50;;;10.20;99.90;;;;;;5027910;28;20239;-81
2022/01/17 08:21:04;;;;;;;16.10;4.03;;;10.20;99.90;;;;;;5048528;28;20220;-80
2022/01/17 08:23:31;;;;;;;19.90;4.47;;;10.20;99.90;;;;;;5035016;28;20296;-82
2022/01/17 08:25:57;;;;;;;18.00;4.27;;;10.20;99.90;;;;;;5033958;28;20236;-79
2022/01/17 08:28:24;;;;;;;18.33;4.43;;;10.20;99.90;;;;;;5029966;28;20670;-82
2022/01/17 08:30:52;;;;;;;14.47;3.70;;;10.20;99.90;;;;;;5046792;28;20610;-83
2022/01/17 08:33:19;;;;;;;15.80;4.17;;;10.20;99.90;;;;;;5046617;28;20975;-80
2022/01/17 08:35:45;;;;;;;20.23;3.97;;;10.20;99.90;;;;;;5046773;28;20322;-80
2022/01/17 08:38:12;;;;;;;21.13;4.97;;;10.20;99.90;;;;;;5039264;28;20241;-80
2022/01/17 08:40:39;;;;;;;16.67;3.47;;;10.20;99.90;;;;;;5021816;28;20242;-80
2022/01/17 08:43:07;;;;;;;20.37;4.63;;;10.20;99.90;;;;;;5039289;28;20214;-80
2022/01/17 08:45:34;;;;;;;24.17;4.70;;;10.20;99.90;;;;;;5046456;28;20700;-81
2022/01/17 08:48:04;;;;;;;26.43;5.33;;;10.30;99.90;;;;;;5052751;28;20240;-80
2022/01/17 08:50:32;;;;;;;22.00;4.57;;;10.30;99.90;;;;;;5035428;28;20236;-83
2022/01/17 08:52:58;;;;;;;23.17;5.17;;;10.30;99.90;;;;;;5037119;28;20299;-80
2022/01/17 08:55:25;;;;;;;20.90;4.53;;;10.30;99.90;;;;;;5052458;28;20263;-80
2022/01/17 08:57:52;;;;;;;24.60;4.83;;;10.40;99.90;;;;;;5053904;28;20229;-81
2022/01/17 09:00:20;;;;;;;21.53;4.87;;;10.40;99.90;;;;;;5044979;28;20698;-82
2022/01/17 09:02:47;;;;;;;20.03;5.33;;;10.40;99.90;;;;;;5044361;28;20238;-81
2022/01/17 09:05:15;;;;;;;20.83;4.63;;;10.50;99.90;;;;;;5033728;28;20237;-81
2022/01/17 09:07:42;;;;;;;21.83;4.77;;;10.50;99.90;;;;;;5041393;28;20233;-80
2022/01/17 09:10:09;;;;;;;21.63;4.37;;;10.50;99.90;;;;;;5050837;28;20241;-82
2022/01/17 09:12:36;;;;;;;17.63;3.77;;;10.60;99.90;;;;;;5042880;28;20231;-80
2022/01/17 09:15:03;;;;;;;22.60;4.53;;;10.60;99.90;;;;;;5029665;28;20224;-80
2022/01/17 09:17:30;;;;;;;21.37;5.20;;;10.70;99.90;;;;;;5031131;28;20246;-80
2022/01/17 09:19:57;;;;;;;16.93;3.93;;;10.70;99.90;;;;;;5046973;28;20229;-82
2022/01/17 09:22:25;;;;;;;16.03;3.77;;;10.70;99.90;;;;;;5058151;28;20242;-82
2022/01/17 09:24:52;;;;;;;16.00;4.07;;;10.60;99.90;;;;;;5035959;28;20240;-81
2022/01/17 09:27:18;;;;;;;17.83;3.77;;;10.60;99.90;;;;;;5027320;28;20231;-80
2022/01/17 09:29:45;;;;;;;15.10;3.63;;;10.60;99.90;;;;;;5046608;28;20230;-80
2022/01/17 09:32:12;;;;;;;10.77;2.40;;;10.50;99.90;;;;;;5045396;28;20231;-81
2022/01/17 09:34:40;;;;;;;9.37;2.20;;;10.50;99.90;;;;;;5043645;28;21190;-80
2022/01/17 09:37:07;;;;;;;15.43;3.30;;;10.50;99.90;;;;;;5035466;28;20305;-81
2022/01/17 09:39:35;;;;;;;14.63;2.90;;;10.40;99.90;;;;;;5033216;28;20241;-80
2022/01/17 09:42:02;;;;;;;8.57;2.53;;;10.40;99.90;;;;;;5049218;28;20230;-81
2022/01/17 09:44:29;;;;;;;11.00;2.53;;;10.30;99.90;;;;;;5043260;28;20625;-80
2022/01/17 09:46:57;;;;;;;9.97;1.87;;;10.30;99.90;;;;;;5033381;28;20222;-80
2022/01/17 09:49:30;;;;;;;9.73;2.57;;;10.30;99.90;;;;;;5048588;28;20583;-80
2022/01/17 09:52:14;;;;;;;10.80;2.30;;;10.30;99.90;;;;;;5047261;28;20640;-81
2022/01/17 09:54:45;;;;;;;8.73;2.50;;;10.30;99.90;;;;;;5026805;28;20238;-80
2022/01/17 09:57:13;;;;;;;10.43;2.57;;;10.30;99.90;;;;;;5021617;28;20231;-81
2022/01/17 09:59:41;;;;;;;10.50;2.00;;;10.30;99.90;;;;;;5044149;28;20746;-80
2022/01/17 10:02:11;;;;;;;8.63;2.10;;;10.30;99.90;;;;;;5040001;28;20236;-80
2022/01/17 10:04:38;;;;;;;10.37;2.33;;;10.40;99.90;;;;;;5043228;28;20873;-82
2022/01/17 10:07:06;;;;;;;7.20;2.67;;;10.40;99.90;;;;;;5029587;28;20245;-80
2022/01/17 10:09:35;;;;;;;9.40;2.10;;;10.40;99.90;;;;;;5037732;28;20263;-80
2022/01/17 10:12:09;;;;;;;9.40;2.27;;;10.50;99.90;;;;;;5045310;28;20257;-80
2022/01/17 10:14:38;;;;;;;10.70;2.27;;;10.60;99.90;;;;;;5020396;28;20245;-80
2022/01/17 10:17:06;;;;;;;11.93;2.80;;;10.70;99.90;;;;;;5027447;28;21123;-80
2022/01/17 10:19:33;;;;;;;10.17;2.70;;;11.00;99.90;;;;;;5027129;28;20236;-80
2022/01/17 10:22:02;;;;;;;9.47;2.20;;;11.20;99.90;;;;;;5045525;28;20311;-80
2022/01/17 10:24:36;;;;;;;11.13;2.17;;;11.40;99.90;;;;;;5026092;28;20328;-80
2022/01/17 10:27:28;;;;;;;9.90;2.33;;;11.50;99.90;;;;;;5026862;28;20221;-80
2022/01/17 10:35:35;;;;;;;11.87;3.23;;;11.40;99.90;;;;;;5044765;28;20230;-80
2022/01/17 10:38:06;;;;;;;12.40;3.40;;;11.40;99.90;;;;;;5036050;28;20222;-79
2022/01/17 10:40:35;;;;;;;10.63;2.60;;;11.30;99.90;;;;;;5042017;28;20238;-81
2022/01/17 10:43:05;;;;;;;12.43;2.73;;;11.20;99.90;;;;;;5025025;28;20227;-80
2022/01/17 10:45:38;;;;;;;9.33;2.43;;;11.10;99.90;;;;;;5037932;28;20233;-80
2022/01/17 10:48:06;;;;;;;10.30;2.07;;;11.00;99.90;;;;;;5029301;28;20234;-79
2022/01/17 10:50:35;;;;;;;9.07;2.30;;;10.90;99.90;;;;;;5045529;28;20731;-80
2022/01/17 10:53:04;;;;;;;13.33;2.43;;;10.80;99.90;;;;;;5043608;28;20907;-80
2022/01/17 10:55:33;;;;;;;8.50;2.07;;;10.80;99.90;;;;;;5043811;28;20237;-80
2022/01/17 10:58:05;;;;;;;9.77;2.40;;;10.70;99.90;;;;;;5025951;28;20227;-79
2022/01/17 11:00:34;;;;;;;9.73;2.30;;;10.60;99.90;;;;;;5047455;28;20230;-84
2022/01/17 11:03:02;;;;;;;10.07;2.40;;;10.50;99.90;;;;;;5039579;28;20249;-80
2022/01/17 11:05:31;;;;;;;11.00;2.73;;;10.40;99.90;;;;;;5030925;28;20231;-80
2022/01/17 11:08:01;;;;;;;14.10;2.57;;;10.40;99.90;;;;;;5021584;28;20303;-80
2022/01/17 11:10:30;;;;;;;12.43;2.47;;;10.30;99.90;;;;;;5022350;28;20985;-80
2022/01/17 11:13:00;;;;;;;9.87;2.23;;;10.30;99.90;;;;;;5039152;28;20312;-79
2022/01/17 11:15:28;;;;;;;10.23;2.37;;;10.20;99.90;;;;;;5051361;28;20775;-81
2022/01/17 11:17:57;;;;;;;9.83;2.40;;;10.20;99.90;;;;;;5050597;28;20354;-81
2022/01/17 11:20:26;;;;;;;9.93;2.40;;;10.20;99.90;;;;;;5043847;28;20594;-81
2022/01/17 11:22:57;;;;;;;14.83;2.70;;;10.10;99.90;;;;;;5023701;28;20654;-81
2022/01/17 11:25:26;;;;;;;13.03;3.37;;;10.10;99.90;;;;;;5026618;28;20227;-84
2022/01/17 11:27:53;;;;;;;17.43;3.50;;;10.10;99.90;;;;;;5040482;28;20239;-80
2022/01/17 11:30:21;;;;;;;12.10;3.33;;;10.10;99.90;;;;;;5047836;28;20229;-81
2022/01/17 11:32:51;;;;;;;9.57;2.70;;;10.10;99.90;;;;;;5047916;28;20233;-85
2022/01/17 11:35:20;;;;;;;15.13;3.27;;;10.10;99.90;;;;;;5039788;28;20315;-80
2022/01/17 11:37:49;;;;;;;16.63;4.43;;;10.10;99.90;;;;;;5029582;28;20317;-80
2022/01/17 11:40:21;;;;;;;16.70;4.17;;;10.10;99.90;;;;;;5051596;28;20241;-80
2022/01/17 11:42:49;;;;;;;13.87;3.23;;;10.10;99.90;;;;;;5041099;28;20280;-83
2022/01/17 11:45:34;;;;;;;11.70;3.23;;;10.20;99.90;;;;;;5051014;28;20232;-82
2022/01/17 11:48:05;;;;;;;17.37;3.80;;;10.20;99.90;;;;;;5040305;28;20272;-79
2022/01/17 11:50:42;;;;;;;20.80;4.27;;;10.20;99.90;;;;;;5046708;28;20263;-79
2022/01/17 11:53:46;;;;;;;18.27;3.87;;;10.20;99.90;;;;;;5042403;28;20233;-79
2022/01/17 11:56:30;;;;;;;21.43;3.87;;;10.10;99.90;;;;;;4945392;28;20247;-79
2022/01/17 11:58:56;;;;;;;17.30;4.33;;;10.10;99.90;;;;;;5037195;28;20233;-80
2022/01/17 12:01:23;;;;;;;21.93;3.83;;;10.10;99.90;;;;;;5032131;28;20245;-81
2022/01/17 12:03:53;;;;;;;13.50;3.33;;;10.10;99.90;;;;;;5046351;28;20235;-79
2022/01/17 12:06:33;;;;;;;17.87;4.13;;;10.10;99.90;;;;;;5031648;28;20234;-79
2022/01/17 12:09:21;;;;;;;19.57;4.13;;;10.10;99.90;;;;;;5038343;28;20655;-82
2022/01/17 12:11:52;;;;;;;15.00;3.83;;;10.10;99.90;;;;;;5039939;28;20235;-79
2022/01/17 12:14:27;;;;;;;16.10;4.10;;;10.10;99.90;;;;;;5026012;28;20598;-79
2022/01/17 12:16:56;;;;;;;17.70;4.13;;;10.20;99.90;;;;;;5045371;28;20610;-80
2022/01/17 12:19:24;;;;;;;22.87;4.97;;;10.10;99.90;;;;;;5043574;28;20233;-80
2022/01/17 12:22:06;;;;;;;20.23;4.53;;;10.10;99.90;;;;;;5047133;28;20244;-81
2022/01/17 12:24:41;;;;;;;16.73;4.40;;;10.10;99.90;;;;;;5042617;28;20250;-79
2022/01/17 12:27:14;;;;;;;18.57;4.13;;;10.10;99.90;;;;;;5032230;28;20225;-79
2022/01/17 12:29:44;;;;;;;19.83;4.70;;;10.10;99.90;;;;;;5048854;28;20245;-79
2022/01/17 12:32:37;;;;;;;19.40;4.10;;;10.00;99.90;;;;;;5026260;28;20222;-82
2022/01/17 12:35:16;;;;;;;19.50;4.13;;;10.00;99.90;;;;;;5034821;28;20273;-81
2022/01/17 12:37:45;;;;;;;18.17;4.30;;;10.00;99.90;;;;;;5028024;28;20236;-82
2022/01/17 12:40:16;;;;;;;17.03;4.87;;;10.00;99.90;;;;;;5027524;28;20275;-80
2022/01/17 12:42:54;;;;;;;17.10;4.23;;;10.00;99.90;;;;;;5042586;28;20242;-79
2022/01/17 12:45:26;;;;;;;21.23;4.00;;;9.90;99.90;;;;;;5044021;28;20557;-79
2022/01/17 12:47:54;;;;;;;14.37;4.47;;;9.90;99.90;;;;;;5053467;28;20234;-80
2022/01/17 12:50:26;;;;;;;21.27;4.97;;;9.80;99.90;;;;;;5046295;28;20232;-79
2022/01/17 12:52:53;;;;;;;19.77;4.97;;;9.80;99.90;;;;;;5032085;28;20239;-79
2022/01/17 12:55:22;;;;;;;18.10;3.87;;;9.70;99.90;;;;;;5039964;28;20223;-81
2022/01/17 12:57:49;;;;;;;19.90;4.57;;;9.70;99.90;;;;;;5050396;28;21008;-80
2022/01/17 13:00:21;;;;;;;26.97;4.53;;;9.70;99.90;;;;;;5045258;28;20334;-80
2022/01/17 13:02:50;;;;;;;20.60;4.00;;;9.70;99.90;;;;;;5045120;28;20839;-84
2022/01/17 13:05:24;;;;;;;18.87;4.03;;;9.70;99.90;;;;;;5044411;28;20229;-79